Time;durP1;ratioP1;P1;durP2;ratioP2;P2;SDS_P1;SDS_P2;PMS_P1;PMS_P2;Temp;Humidity;BMP_temperature;BMP_pressure;BME280_temperature;BME280_humidity;BME280_pressure;Samples;Min_cycle;Max_cycle;Signal;HPM_P1;HPM_P2
2022/11/06 00:02:07;;;;;;;9.82;5.45;;;;;;;;;;5081107;28;20454;-56
2022/11/06 00:04:32;;;;;;;14.52;7.72;;;;;;;;;;5084199;28;20398;-57
2022/11/06 00:06:57;;;;;;;13.88;6.57;;;;;;;;;;5081271;28;20099;-57
2022/11/06 00:09:23;;;;;;;14.52;6.18;;;;;;;;;;5083615;28;20031;-58
2022/11/06 00:11:49;;;;;;;14.18;5.63;;;;;;;;;;5079716;28;20051;-58
2022/11/06 00:14:14;;;;;;;12.50;5.68;;;;;;;;;;5092864;28;20023;-56
2022/11/06 00:16:40;;;;;;;16.80;5.63;;;;;;;;;;5080067;28;20280;-59
2022/11/06 00:19:05;;;;;;;16.20;6.20;;;;;;;;;;5084927;28;20024;-56
2022/11/06 00:21:31;;;;;;;14.82;5.82;;;;;;;;;;5086837;28;20470;-59
2022/11/06 00:23:57;;;;;;;11.18;5.72;;;;;;;;;;5079208;28;20031;-58
2022/11/06 00:26:23;;;;;;;11.73;6.35;;;;;;;;;;5079494;28;20078;-58
2022/11/06 00:28:49;;;;;;;13.32;6.22;;;;;;;;;;5085232;28;20038;-58
2022/11/06 00:31:15;;;;;;;19.50;8.10;;;;;;;;;;5081681;28;20016;-57
2022/11/06 00:33:40;;;;;;;13.00;6.45;;;;;;;;;;5087518;28;20024;-57
2022/11/06 00:36:06;;;;;;;14.30;6.70;;;;;;;;;;5078414;28;20070;-56
2022/11/06 00:38:31;;;;;;;17.17;6.97;;;;;;;;;;5087772;28;20028;-57
2022/11/06 00:40:56;;;;;;;15.65;5.85;;;;;;;;;;5085252;28;20016;-57
2022/11/06 00:43:22;;;;;;;10.05;5.35;;;;;;;;;;5074695;28;20036;-57
2022/11/06 00:45:47;;;;;;;18.65;5.63;;;;;;;;;;5079160;28;20020;-57
2022/11/06 00:48:12;;;;;;;11.27;5.65;;;;;;;;;;5079792;28;20032;-57
2022/11/06 00:50:38;;;;;;;14.25;5.40;;;;;;;;;;5079755;28;20031;-57
2022/11/06 00:53:03;;;;;;;15.63;5.82;;;;;;;;;;5094013;28;20028;-57
2022/11/06 00:55:28;;;;;;;13.85;5.25;;;;;;;;;;5086401;28;20335;-57
2022/11/06 00:57:53;;;;;;;16.38;5.45;;;;;;;;;;5072162;28;20104;-56
2022/11/06 01:00:19;;;;;;;10.40;5.38;;;;;;;;;;5074402;28;20119;-57
2022/11/06 01:02:45;;;;;;;12.60;4.93;;;;;;;;;;5080816;28;20127;-56
2022/11/06 01:05:10;;;;;;;13.93;5.35;;;;;;;;;;5082995;28;20091;-56
2022/11/06 01:07:35;;;;;;;10.57;5.20;;;;;;;;;;5076142;28;20650;-57
2022/11/06 01:10:00;;;;;;;17.73;5.53;;;;;;;;;;5079224;28;20020;-56
2022/11/06 01:12:26;;;;;;;12.75;4.90;;;;;;;;;;5079593;28;20561;-56
2022/11/06 01:14:51;;;;;;;10.13;5.28;;;;;;;;;;5077796;28;20323;-57
2022/11/06 01:17:16;;;;;;;13.65;5.85;;;;;;;;;;5069900;28;20039;-57
2022/11/06 01:19:41;;;;;;;20.08;5.20;;;;;;;;;;5076669;28;20023;-57
2022/11/06 01:22:07;;;;;;;12.48;5.20;;;;;;;;;;5085720;28;20030;-57
2022/11/06 01:24:32;;;;;;;9.80;4.63;;;;;;;;;;5083144;28;20474;-57
2022/11/06 01:26:57;;;;;;;15.10;5.20;;;;;;;;;;5073788;28;20319;-57
2022/11/06 01:29:23;;;;;;;16.35;4.97;;;;;;;;;;5080084;28;20038;-56
2022/11/06 01:31:51;;;;;;;11.88;4.68;;;;;;;;;;5081425;28;20031;-57
2022/11/06 01:34:16;;;;;;;11.45;4.53;;;;;;;;;;5067830;28;20408;-57
2022/11/06 01:36:41;;;;;;;13.70;4.90;;;;;;;;;;5074148;28;20066;-57
2022/11/06 01:39:07;;;;;;;10.15;4.30;;;;;;;;;;5078082;28;20390;-57
2022/11/06 01:41:34;;;;;;;12.15;4.82;;;;;;;;;;5083886;28;20026;-56
2022/11/06 01:44:00;;;;;;;12.93;4.03;;;;;;;;;;5073384;28;20142;-57
2022/11/06 01:46:26;;;;;;;9.98;4.05;;;;;;;;;;5068942;28;20020;-57
2022/11/06 01:48:58;;;;;;;11.75;4.18;;;;;;;;;;5080773;28;20473;-57
2022/11/06 01:51:23;;;;;;;9.05;3.75;;;;;;;;;;5113746;27;20111;-57
2022/11/06 01:53:49;;;;;;;8.75;3.75;;;;;;;;;;5087709;28;20115;-56
2022/11/06 01:56:14;;;;;;;11.15;3.72;;;;;;;;;;5083652;28;20120;-57
2022/11/06 01:58:40;;;;;;;7.38;3.20;;;;;;;;;;5090258;28;20015;-58
2022/11/06 02:01:05;;;;;;;14.27;3.78;;;;;;;;;;5120282;27;20458;-57
2022/11/06 02:03:30;;;;;;;13.27;3.53;;;;;;;;;;5091846;28;20443;-57
2022/11/06 02:05:56;;;;;;;10.25;3.40;;;;;;;;;;5078424;28;20048;-57
2022/11/06 02:08:21;;;;;;;10.75;3.47;;;;;;;;;;5106706;27;20320;-55
2022/11/06 02:10:46;;;;;;;7.05;3.45;;;;;;;;;;5088733;28;20020;-56
2022/11/06 02:13:17;;;;;;;7.85;3.50;;;;;;;;;;5093044;28;20491;-56
2022/11/06 02:15:42;;;;;;;;;;;;;;;;;;5117413;27;20024;-57
2022/11/06 02:18:10;;;;;;;11.65;3.30;;;;;;;;;;5089371;28;19914;-56
2022/11/06 02:20:41;;;;;;;7.47;3.03;;;;;;;;;;5097328;28;20277;-57
2022/11/06 02:23:25;;;;;;;5.00;2.22;;;;;;;;;;5078515;28;20020;-57
2022/11/06 02:25:53;;;;;;;7.82;2.90;;;;;;;;;;5083532;28;20027;-56
2022/11/06 02:28:35;;;;;;;10.80;3.28;;;;;;;;;;5075418;28;20127;-57
2022/11/06 02:31:02;;;;;;;8.65;3.17;;;;;;;;;;5085117;28;20027;-57
2022/11/06 02:33:32;;;;;;;12.93;3.63;;;;;;;;;;5123032;27;20173;-57
2022/11/06 02:35:59;;;;;;;15.45;3.83;;;;;;;;;;5083007;28;20059;-57
2022/11/06 02:38:26;;;;;;;11.95;2.95;;;;;;;;;;5080140;28;20029;-57
2022/11/06 02:40:52;;;;;;;7.10;2.97;;;;;;;;;;5082096;28;20043;-57
2022/11/06 02:43:17;;;;;;;10.20;3.00;;;;;;;;;;5081065;28;20517;-57
2022/11/06 02:45:44;;;;;;;11.90;3.20;;;;;;;;;;5106340;27;20023;-57
2022/11/06 02:48:10;;;;;;;8.82;3.25;;;;;;;;;;5112428;27;20035;-57
2022/11/06 02:50:38;;;;;;;7.88;3.35;;;;;;;;;;5073734;28;20032;-58
2022/11/06 02:53:03;;;;;;;12.70;3.65;;;;;;;;;;5085083;28;20032;-57
2022/11/06 02:55:45;;;;;;;9.70;3.35;;;;;;;;;;5082877;28;20019;-56
2022/11/06 02:58:20;;;;;;;8.82;3.63;;;;;;;;;;5072798;28;20478;-57
2022/11/06 03:00:47;;;;;;;11.38;3.63;;;;;;;;;;5082976;28;20027;-57
2022/11/06 03:03:15;;;;;;;16.50;3.55;;;;;;;;;;5083913;28;20723;-57
2022/11/06 03:05:53;;;;;;;9.73;3.13;;;;;;;;;;5087150;28;20081;-55
2022/11/06 03:08:42;;;;;;;14.20;3.53;;;;;;;;;;5072485;28;20474;-57
2022/11/06 03:11:13;;;;;;;10.30;3.50;;;;;;;;;;5075854;28;20042;-57
2022/11/06 03:13:41;;;;;;;9.63;2.97;;;;;;;;;;5086794;28;20019;-56
2022/11/06 03:16:14;;;;;;;6.82;3.33;;;;;;;;;;5077110;28;20028;-57
2022/11/06 03:19:02;;;;;;;11.02;4.45;;;;;;;;;;5114006;27;20039;-56
2022/11/06 03:21:32;;;;;;;11.07;3.70;;;;;;;;;;5066631;28;20036;-57
2022/11/06 03:24:00;;;;;;;11.95;3.45;;;;;;;;;;5083980;28;20058;-57
2022/11/06 03:26:26;;;;;;;7.65;3.15;;;;;;;;;;5082855;28;20036;-57
2022/11/06 03:28:51;;;;;;;11.10;3.67;;;;;;;;;;5085073;28;20036;-57
2022/11/06 03:31:17;;;;;;;9.85;3.17;;;;;;;;;;5070310;28;20482;-57
2022/11/06 03:33:51;;;;;;;5.90;3.10;;;;;;;;;;5098103;28;20120;-57
2022/11/06 03:36:24;;;;;;;7.93;3.22;;;;;;;;;;5075804;28;20012;-57
2022/11/06 03:38:50;;;;;;;16.55;3.50;;;;;;;;;;5075149;28;20020;-57
2022/11/06 03:41:21;;;;;;;11.18;2.92;;;;;;;;;;5087283;28;20111;-57
2022/11/06 03:43:46;;;;;;;9.93;3.40;;;;;;;;;;5108823;27;20020;-57
2022/11/06 03:46:12;;;;;;;13.32;3.42;;;;;;;;;;5082692;28;20025;-57
2022/11/06 03:48:39;;;;;;;13.05;3.58;;;;;;;;;;5121816;27;20035;-57
2022/11/06 03:51:11;;;;;;;11.40;3.85;;;;;;;;;;5075615;28;20039;-57
2022/11/06 03:53:40;;;;;;;9.18;3.40;;;;;;;;;;5077362;28;20031;-56
2022/11/06 03:56:11;;;;;;;10.68;3.65;;;;;;;;;;5082130;28;20016;-57
2022/11/06 03:58:37;;;;;;;12.70;4.05;;;;;;;;;;5114812;27;20028;-57
2022/11/06 04:01:02;;;;;;;12.05;3.40;;;;;;;;;;5112399;27;20046;-57
2022/11/06 04:03:35;;;;;;;11.55;3.33;;;;;;;;;;5105867;27;20048;-57
2022/11/06 04:06:14;;;;;;;16.23;3.92;;;;;;;;;;5082877;28;20052;-56
2022/11/06 04:14:08;;;;;;;11.35;3.72;;;;;;;;;;5077778;28;20099;-57
2022/11/06 04:16:34;;;;;;;12.13;3.75;;;;;;;;;;5107863;27;20455;-57
2022/11/06 04:18:59;;;;;;;7.28;3.03;;;;;;;;;;5112517;27;20044;-57
2022/11/06 04:21:40;;;;;;;8.93;3.38;;;;;;;;;;5089960;28;20027;-57
2022/11/06 04:27:07;;;;;;;9.15;3.03;;;;;;;;;;5079715;28;19930;-56
2022/11/06 04:29:48;;;;;;;13.60;4.05;;;;;;;;;;5086757;28;20044;-55
2022/11/06 04:32:26;;;;;;;12.75;3.72;;;;;;;;;;5077879;28;20174;-56
2022/11/06 04:34:55;;;;;;;13.05;3.42;;;;;;;;;;5110317;27;20028;-56
2022/11/06 04:37:21;;;;;;;11.05;3.70;;;;;;;;;;5084004;28;20032;-56
2022/11/06 04:40:00;;;;;;;8.13;3.75;;;;;;;;;;5084066;28;20027;-58
2022/11/06 04:42:36;;;;;;;6.65;3.50;;;;;;;;;;5116061;27;20028;-57
2022/11/06 04:45:03;;;;;;;13.07;3.72;;;;;;;;;;5088662;28;20471;-57
2022/11/06 04:47:28;;;;;;;11.68;3.72;;;;;;;;;;5073302;28;20020;-56
2022/11/06 04:49:55;;;;;;;14.25;4.03;;;;;;;;;;5084721;28;20027;-56
2022/11/06 04:52:21;;;;;;;10.88;3.42;;;;;;;;;;5080220;28;21251;-57
2022/11/06 04:54:47;;;;;;;9.05;3.50;;;;;;;;;;5069804;28;20017;-57
2022/11/06 04:57:12;;;;;;;11.45;3.78;;;;;;;;;;5076057;28;20021;-56
2022/11/06 04:59:37;;;;;;;9.15;3.75;;;;;;;;;;5082728;28;20027;-56
2022/11/06 05:02:03;;;;;;;9.65;3.45;;;;;;;;;;5084192;28;20197;-56
2022/11/06 05:04:29;;;;;;;19.80;3.88;;;;;;;;;;5077947;28;20044;-56
2022/11/06 05:06:54;;;;;;;10.38;3.83;;;;;;;;;;5082758;28;20102;-57
2022/11/06 05:09:19;;;;;;;11.27;3.88;;;;;;;;;;5088302;28;20433;-57
2022/11/06 05:11:44;;;;;;;11.02;3.45;;;;;;;;;;5079706;28;20034;-57
2022/11/06 05:14:10;;;;;;;8.80;3.45;;;;;;;;;;5074286;28;20123;-57
2022/11/06 05:16:35;;;;;;;12.00;3.80;;;;;;;;;;5088684;28;20025;-56
2022/11/06 05:19:00;;;;;;;15.93;3.97;;;;;;;;;;5082498;28;20503;-55
2022/11/06 05:24:10;;;;;;;11.60;4.25;;;;;;;;;;5072816;28;20176;-56
2022/11/06 05:26:35;;;;;;;12.73;3.90;;;;;;;;;;5079492;28;20032;-57
2022/11/06 05:29:00;;;;;;;10.27;3.92;;;;;;;;;;5090392;28;20425;-57
2022/11/06 05:31:25;;;;;;;10.10;3.83;;;;;;;;;;5086620;28;20060;-57
2022/11/06 05:33:51;;;;;;;10.98;3.65;;;;;;;;;;5092403;28;20051;-57
2022/11/06 05:36:16;;;;;;;12.45;3.80;;;;;;;;;;5074214;28;20023;-56
2022/11/06 05:38:41;;;;;;;10.55;4.10;;;;;;;;;;5080280;28;20497;-57
2022/11/06 05:41:06;;;;;;;12.30;4.10;;;;;;;;;;5083919;28;20486;-55
2022/11/06 05:43:32;;;;;;;14.30;3.90;;;;;;;;;;5084296;28;20316;-57
2022/11/06 05:45:59;;;;;;;10.60;4.40;;;;;;;;;;5077307;28;20023;-56
2022/11/06 05:48:24;;;;;;;12.60;4.82;;;;;;;;;;5092575;28;20028;-57
2022/11/06 05:50:49;;;;;;;13.77;4.70;;;;;;;;;;5083963;28;20034;-57
2022/11/06 05:53:15;;;;;;;16.88;4.97;;;;;;;;;;5092282;28;20028;-57
2022/11/06 05:55:40;;;;;;;18.02;5.00;;;;;;;;;;5090329;28;20020;-56
2022/11/06 05:58:05;;;;;;;16.45;5.38;;;;;;;;;;5068391;28;20457;-56
2022/11/06 06:00:31;;;;;;;13.93;5.20;;;;;;;;;;5115560;27;20109;-55
2022/11/06 06:02:56;;;;;;;23.05;5.32;;;;;;;;;;5087524;28;20106;-56
2022/11/06 06:05:21;;;;;;;17.27;6.25;;;;;;;;;;5085099;28;20048;-56
2022/11/06 06:07:47;;;;;;;14.43;5.32;;;;;;;;;;5089214;28;20039;-57
2022/11/06 06:10:12;;;;;;;17.27;5.85;;;;;;;;;;5081080;28;20031;-57
2022/11/06 06:12:38;;;;;;;12.90;5.40;;;;;;;;;;5091635;28;20020;-57
2022/11/06 06:15:04;;;;;;;11.50;5.30;;;;;;;;;;5081644;28;20028;-56
2022/11/06 06:17:29;;;;;;;14.85;6.07;;;;;;;;;;5082932;28;20472;-57
2022/11/06 06:19:54;;;;;;;16.63;6.70;;;;;;;;;;5079287;28;20016;-56
2022/11/06 06:22:19;;;;;;;14.10;8.07;;;;;;;;;;5086114;28;20035;-56
2022/11/06 06:24:45;;;;;;;14.82;7.05;;;;;;;;;;5086216;28;20481;-56
2022/11/06 06:27:10;;;;;;;18.15;8.15;;;;;;;;;;5087395;28;20020;-55
2022/11/06 06:29:35;;;;;;;18.70;7.97;;;;;;;;;;5086647;28;20126;-55
2022/11/06 06:32:00;;;;;;;13.45;7.07;;;;;;;;;;5087607;28;20134;-56
2022/11/06 06:34:26;;;;;;;14.60;7.93;;;;;;;;;;5086973;28;20024;-56
2022/11/06 06:36:51;;;;;;;17.08;8.00;;;;;;;;;;5080436;28;20031;-54
2022/11/06 06:39:18;;;;;;;11.02;6.50;;;;;;;;;;5077220;28;20107;-56
2022/11/06 06:41:43;;;;;;;16.08;8.07;;;;;;;;;;5085098;28;20016;-57
2022/11/06 06:44:08;;;;;;;20.95;9.05;;;;;;;;;;5083005;28;20030;-56
2022/11/06 06:46:33;;;;;;;20.27;8.82;;;;;;;;;;5084376;28;20436;-56
2022/11/06 06:48:59;;;;;;;15.95;8.10;;;;;;;;;;5106986;27;20032;-57
2022/11/06 06:51:24;;;;;;;17.05;8.93;;;;;;;;;;5087231;28;20023;-56
2022/11/06 06:53:49;;;;;;;16.58;8.95;;;;;;;;;;5089345;28;20118;-59
2022/11/06 06:56:14;;;;;;;21.45;8.60;;;;;;;;;;5084456;28;20117;-57
2022/11/06 06:58:40;;;;;;;17.45;9.02;;;;;;;;;;5086062;28;20059;-56
2022/11/06 07:01:05;;;;;;;15.70;8.63;;;;;;;;;;5078459;28;20449;-57
2022/11/06 07:03:30;;;;;;;16.90;8.38;;;;;;;;;;5079518;28;20043;-57
2022/11/06 07:05:56;;;;;;;15.77;8.20;;;;;;;;;;5082371;28;20399;-57
2022/11/06 07:08:21;;;;;;;18.50;8.90;;;;;;;;;;5079974;28;20044;-56
2022/11/06 07:10:46;;;;;;;17.40;8.15;;;;;;;;;;5092271;28;20026;-57
2022/11/06 07:13:12;;;;;;;17.77;7.80;;;;;;;;;;5118320;27;20020;-56
2022/11/06 07:15:37;;;;;;;16.63;8.82;;;;;;;;;;5097803;28;20019;-56
2022/11/06 07:18:03;;;;;;;16.15;8.57;;;;;;;;;;5082447;28;20274;-55
2022/11/06 07:20:28;;;;;;;13.20;8.30;;;;;;;;;;5107149;27;20166;-56
2022/11/06 07:22:54;;;;;;;16.75;9.15;;;;;;;;;;5083161;28;20052;-57
2022/11/06 07:25:19;;;;;;;16.80;8.00;;;;;;;;;;5090375;28;20020;-57
2022/11/06 07:27:44;;;;;;;17.63;8.00;;;;;;;;;;5084203;28;20482;-56
2022/11/06 07:30:10;;;;;;;14.77;7.72;;;;;;;;;;5089063;28;20409;-57
2022/11/06 07:32:35;;;;;;;12.07;7.32;;;;;;;;;;5073981;28;20571;-57
2022/11/06 07:35:00;;;;;;;15.00;6.88;;;;;;;;;;5090758;28;20051;-56
2022/11/06 07:37:26;;;;;;;12.80;6.85;;;;;;;;;;5079115;28;20040;-56
2022/11/06 07:39:51;;;;;;;11.13;6.40;;;;;;;;;;5088775;28;20058;-56
2022/11/06 07:42:16;;;;;;;12.98;7.13;;;;;;;;;;5079015;28;20020;-57
2022/11/06 07:44:41;;;;;;;12.90;7.43;;;;;;;;;;5123085;27;20027;-55
2022/11/06 07:47:07;;;;;;;11.02;6.68;;;;;;;;;;5079559;28;20024;-55
2022/11/06 07:49:32;;;;;;;14.02;7.10;;;;;;;;;;5084827;28;20423;-55
2022/11/06 07:51:57;;;;;;;11.50;6.38;;;;;;;;;;5072956;28;20078;-56
2022/11/06 07:54:23;;;;;;;17.15;6.90;;;;;;;;;;5086501;28;20036;-56
2022/11/06 07:56:48;;;;;;;10.60;6.60;;;;;;;;;;5082452;28;20019;-56
2022/11/06 07:59:13;;;;;;;10.27;6.30;;;;;;;;;;5082124;28;20139;-56
2022/11/06 08:01:38;;;;;;;10.15;6.47;;;;;;;;;;5079470;28;20467;-56
2022/11/06 08:04:03;;;;;;;9.70;5.55;;;;;;;;;;5080204;28;20108;-56
2022/11/06 08:06:29;;;;;;;13.32;6.20;;;;;;;;;;5082824;28;20559;-57
2022/11/06 08:08:54;;;;;;;12.43;5.50;;;;;;;;;;5072376;28;20058;-55
2022/11/06 08:11:19;;;;;;;12.30;5.78;;;;;;;;;;5074576;28;20312;-57
2022/11/06 08:13:45;;;;;;;10.65;5.28;;;;;;;;;;5076983;28;20034;-57
2022/11/06 08:16:10;;;;;;;10.90;6.38;;;;;;;;;;5073849;28;20020;-57
2022/11/06 08:18:36;;;;;;;10.57;5.97;;;;;;;;;;5091357;28;20056;-57
2022/11/06 08:21:01;;;;;;;12.00;5.00;;;;;;;;;;5078637;28;20449;-55
2022/11/06 08:23:27;;;;;;;9.60;4.80;;;;;;;;;;5078304;28;20020;-56
2022/11/06 08:25:53;;;;;;;12.27;5.43;;;;;;;;;;5076942;28;20018;-55
2022/11/06 08:28:18;;;;;;;12.75;5.55;;;;;;;;;;5068355;28;20167;-56
2022/11/06 08:30:43;;;;;;;11.48;5.45;;;;;;;;;;5078329;28;20113;-57
2022/11/06 08:33:09;;;;;;;12.15;5.18;;;;;;;;;;5076897;28;20062;-56
2022/11/06 08:35:34;;;;;;;10.23;4.90;;;;;;;;;;5073701;28;20021;-57
2022/11/06 08:38:00;;;;;;;9.95;4.97;;;;;;;;;;5081310;28;20039;-57
2022/11/06 08:40:25;;;;;;;8.68;4.72;;;;;;;;;;5081586;28;20527;-56
2022/11/06 08:42:50;;;;;;;10.38;5.30;;;;;;;;;;5073044;28;20406;-56
2022/11/06 08:45:16;;;;;;;9.00;5.00;;;;;;;;;;5079513;28;20595;-56
2022/11/06 08:47:41;;;;;;;7.13;4.18;;;;;;;;;;5077640;28;20035;-54
2022/11/06 08:50:06;;;;;;;10.45;5.25;;;;;;;;;;5070433;28;20418;-54
2022/11/06 08:52:32;;;;;;;11.52;5.20;;;;;;;;;;5079268;28;20081;-56
2022/11/06 08:54:57;;;;;;;9.70;5.20;;;;;;;;;;5077204;28;20326;-55
2022/11/06 08:57:22;;;;;;;8.63;5.10;;;;;;;;;;5078261;28;20031;-55
2022/11/06 08:59:47;;;;;;;7.20;4.88;;;;;;;;;;5088176;28;20107;-55
2022/11/06 09:02:13;;;;;;;10.95;5.47;;;;;;;;;;5081787;28;20020;-55
2022/11/06 09:04:38;;;;;;;10.82;4.78;;;;;;;;;;5088399;28;20509;-56
2022/11/06 09:07:03;;;;;;;9.82;5.82;;;;;;;;;;5085410;28;20035;-55
2022/11/06 09:09:30;;;;;;;8.77;5.20;;;;;;;;;;5081284;28;20051;-56
2022/11/06 09:11:56;;;;;;;9.65;5.00;;;;;;;;;;5080317;28;20031;-55
2022/11/06 09:14:22;;;;;;;8.98;4.70;;;;;;;;;;5077328;28;20024;-54
2022/11/06 09:16:47;;;;;;;9.57;4.45;;;;;;;;;;5082754;28;20554;-55
2022/11/06 09:19:12;;;;;;;6.78;4.20;;;;;;;;;;5090450;28;20025;-55
2022/11/06 09:21:39;;;;;;;9.13;4.72;;;;;;;;;;5082465;28;20050;-55
2022/11/06 09:24:04;;;;;;;7.75;4.60;;;;;;;;;;5081219;28;20078;-54
2022/11/06 09:26:29;;;;;;;9.93;4.68;;;;;;;;;;5094447;28;20032;-55
2022/11/06 09:28:55;;;;;;;13.35;4.60;;;;;;;;;;5077631;28;20454;-55
2022/11/06 09:31:20;;;;;;;9.73;4.22;;;;;;;;;;5083004;28;20516;-55
2022/11/06 09:33:46;;;;;;;9.50;3.97;;;;;;;;;;5091939;28;20011;-56
2022/11/06 09:36:11;;;;;;;7.68;3.83;;;;;;;;;;5081636;28;20020;-55
2022/11/06 09:38:36;;;;;;;7.05;4.30;;;;;;;;;;5088777;28;20056;-54
2022/11/06 09:41:01;;;;;;;9.50;4.80;;;;;;;;;;5078537;28;20027;-56
2022/11/06 09:43:36;;;;;;;11.13;4.22;;;;;;;;;;5084598;28;20037;-55
2022/11/06 09:46:05;;;;;;;10.02;4.13;;;;;;;;;;5085748;28;20017;-55
2022/11/06 09:48:35;;;;;;;8.52;3.78;;;;;;;;;;5113936;27;20039;-54
2022/11/06 09:51:01;;;;;;;8.50;3.80;;;;;;;;;;5079230;28;20345;-56
2022/11/06 09:53:36;;;;;;;8.65;3.90;;;;;;;;;;5082474;28;20032;-56
2022/11/06 09:56:02;;;;;;;6.85;3.50;;;;;;;;;;5082460;28;20120;-56
2022/11/06 09:58:29;;;;;;;8.82;3.60;;;;;;;;;;5087995;28;20475;-56
2022/11/06 10:00:54;;;;;;;7.00;3.50;;;;;;;;;;5073366;28;20530;-56
2022/11/06 10:03:32;;;;;;;7.35;3.55;;;;;;;;;;5079214;28;20022;-57
2022/11/06 10:05:57;;;;;;;8.18;3.03;;;;;;;;;;5077054;28;20144;-55
2022/11/06 10:08:23;;;;;;;9.45;3.53;;;;;;;;;;5094929;28;20072;-56
2022/11/06 10:11:26;;;;;;;6.80;3.33;;;;;;;;;;5091691;28;20023;-56
2022/11/06 10:14:01;;;;;;;7.85;3.13;;;;;;;;;;5062577;28;20064;-54
2022/11/06 10:16:47;;;;;;;7.95;2.65;;;;;;;;;;5063451;28;20059;-56
2022/11/06 10:19:28;;;;;;;7.25;2.70;;;;;;;;;;5072896;28;20050;-56
2022/11/06 10:21:53;;;;;;;;;;;;;;;;;;5080451;28;20137;-56
2022/11/06 10:24:24;;;;;;;6.65;2.80;;;;;;;;;;5077968;28;19955;-56
2022/11/06 10:26:55;;;;;;;7.38;3.83;;;;;;;;;;5084630;28;20025;-56
2022/11/06 10:29:30;;;;;;;5.15;2.80;;;;;;;;;;5091699;28;20421;-54
2022/11/06 10:32:14;;;;;;;9.75;2.95;;;;;;;;;;5095949;27;20229;-55
2022/11/06 10:34:40;;;;;;;6.72;2.83;;;;;;;;;;5081649;28;20020;-55
2022/11/06 10:37:12;;;;;;;7.13;2.92;;;;;;;;;;5121150;27;20030;-55
2022/11/06 10:39:37;;;;;;;8.38;2.90;;;;;;;;;;5080851;28;20028;-56
2022/11/06 10:42:05;;;;;;;9.98;2.78;;;;;;;;;;5091160;28;20379;-56
2022/11/06 10:44:30;;;;;;;7.75;2.72;;;;;;;;;;5088854;28;20135;-53
2022/11/06 10:46:59;;;;;;;9.52;3.17;;;;;;;;;;5076149;28;20521;-53
2022/11/06 10:49:35;;;;;;;6.68;2.60;;;;;;;;;;5082162;28;20080;-53
2022/11/06 10:52:19;;;;;;;6.35;2.90;;;;;;;;;;5075062;28;20039;-54
2022/11/06 10:54:51;;;;;;;8.90;2.75;;;;;;;;;;5076900;28;20026;-54
2022/11/06 10:57:25;;;;;;;7.10;2.78;;;;;;;;;;5116892;27;20475;-55
2022/11/06 10:59:50;;;;;;;6.50;2.80;;;;;;;;;;5085949;28;20116;-56
2022/11/06 11:02:32;;;;;;;8.00;2.72;;;;;;;;;;5081965;28;20042;-54
2022/11/06 11:04:57;;;;;;;5.53;2.33;;;;;;;;;;5069813;28;20044;-55
2022/11/06 11:07:23;;;;;;;9.48;2.53;;;;;;;;;;5073914;28;20020;-55
2022/11/06 11:09:49;;;;;;;4.53;2.17;;;;;;;;;;5080076;28;20366;-56
2022/11/06 11:12:27;;;;;;;5.95;2.55;;;;;;;;;;5086514;28;20038;-56
2022/11/06 11:15:08;;;;;;;8.45;4.05;;;;;;;;;;5080412;28;20024;-55
2022/11/06 11:17:33;;;;;;;6.07;2.67;;;;;;;;;;5087042;28;20062;-55
2022/11/06 11:20:00;;;;;;;7.05;2.72;;;;;;;;;;5089698;28;20023;-56
2022/11/06 11:22:26;;;;;;;8.82;2.42;;;;;;;;;;5084850;28;20032;-54
2022/11/06 11:25:01;;;;;;;4.82;2.20;;;;;;;;;;5087304;28;20223;-54
2022/11/06 11:27:26;;;;;;;4.25;2.10;;;;;;;;;;5080408;28;20028;-55
2022/11/06 11:29:52;;;;;;;5.60;2.20;;;;;;;;;;5082209;28;20043;-53
2022/11/06 11:32:17;;;;;;;7.82;2.50;;;;;;;;;;5082927;28;20024;-56
2022/11/06 11:34:44;;;;;;;5.18;2.30;;;;;;;;;;5082070;28;20020;-55
2022/11/06 11:37:19;;;;;;;6.68;2.33;;;;;;;;;;5098567;28;20019;-54
2022/11/06 11:39:44;;;;;;;4.60;2.17;;;;;;;;;;5085276;28;20065;-56
2022/11/06 11:42:22;;;;;;;7.03;2.30;;;;;;;;;;5078698;28;20017;-55
2022/11/06 11:45:06;;;;;;;3.40;2.28;;;;;;;;;;5082757;28;20032;-55
2022/11/06 11:47:31;;;;;;;3.78;2.45;;;;;;;;;;5079717;28;20025;-55
2022/11/06 11:49:56;;;;;;;6.05;2.30;;;;;;;;;;5084258;28;20062;-55
2022/11/06 11:52:22;;;;;;;3.65;2.00;;;;;;;;;;5082592;28;20024;-56
2022/11/06 11:54:48;;;;;;;8.13;2.55;;;;;;;;;;5079983;28;20026;-57
2022/11/06 11:57:18;;;;;;;5.50;2.42;;;;;;;;;;5087735;28;20463;-56
2022/11/06 11:59:44;;;;;;;2.88;1.77;;;;;;;;;;5079677;28;20055;-57
2022/11/06 12:02:26;;;;;;;4.53;1.83;;;;;;;;;;5088927;28;20032;-56
2022/11/06 12:04:52;;;;;;;2.15;1.50;;;;;;;;;;5114840;27;20051;-57
2022/11/06 12:07:28;;;;;;;3.20;1.50;;;;;;;;;;5075877;28;20016;-56
2022/11/06 12:09:53;;;;;;;7.00;2.05;;;;;;;;;;5083151;28;20526;-56
2022/11/06 12:12:36;;;;;;;3.92;1.73;;;;;;;;;;5080484;28;20059;-56
2022/11/06 12:15:22;;;;;;;3.95;2.10;;;;;;;;;;5081873;28;20033;-56
2022/11/06 12:17:56;;;;;;;5.38;1.92;;;;;;;;;;5078513;28;20024;-56
2022/11/06 12:20:26;;;;;;;4.70;2.20;;;;;;;;;;5083550;28;20202;-55
2022/11/06 12:22:51;;;;;;;5.00;2.30;;;;;;;;;;5083241;28;20020;-56
2022/11/06 12:25:35;;;;;;;4.13;2.00;;;;;;;;;;5072301;28;20109;-56
2022/11/06 12:28:00;;;;;;;6.22;2.05;;;;;;;;;;5071921;28;20097;-54
2022/11/06 12:30:26;;;;;;;3.83;1.75;;;;;;;;;;5108311;27;20381;-57
2022/11/06 12:33:02;;;;;;;6.25;1.90;;;;;;;;;;5109187;27;20039;-55
2022/11/06 12:35:28;;;;;;;2.20;1.55;;;;;;;;;;5110173;27;20028;-57
2022/11/06 12:38:03;;;;;;;6.13;2.20;;;;;;;;;;5073485;28;20112;-54
2022/11/06 12:40:29;;;;;;;4.72;1.83;;;;;;;;;;5084557;28;20470;-57
2022/11/06 12:43:03;;;;;;;4.25;2.28;;;;;;;;;;5077436;28;20036;-57
2022/11/06 12:45:34;;;;;;;5.53;1.90;;;;;;;;;;5073651;28;20081;-57
2022/11/06 12:48:07;;;;;;;4.93;1.70;;;;;;;;;;5099462;27;20107;-57
2022/11/06 12:50:37;;;;;;;7.50;2.20;;;;;;;;;;5075672;28;20025;-56
2022/11/06 12:53:02;;;;;;;5.97;2.00;;;;;;;;;;5072245;28;20013;-56
2022/11/06 12:55:28;;;;;;;3.95;2.13;;;;;;;;;;5074593;28;20489;-56
2022/11/06 12:58:03;;;;;;;8.75;2.13;;;;;;;;;;5071623;28;20064;-56
2022/11/06 13:00:48;;;;;;;3.45;2.20;;;;;;;;;;5071089;28;20196;-56
2022/11/06 13:03:22;;;;;;;3.13;2.03;;;;;;;;;;5054216;28;20024;-55
2022/11/06 13:05:57;;;;;;;6.85;2.10;;;;;;;;;;5084684;28;20470;-55
2022/11/06 13:08:26;;;;;;;6.40;2.13;;;;;;;;;;5076443;28;20101;-55
2022/11/06 13:11:06;;;;;;;4.93;2.30;;;;;;;;;;5076353;28;20023;-55
2022/11/06 13:13:50;;;;;;;3.10;1.98;;;;;;;;;;5071343;28;20047;-55
2022/11/06 13:16:22;;;;;;;3.65;1.92;;;;;;;;;;5083343;28;20028;-56
2022/11/06 13:18:49;;;;;;;4.50;1.90;;;;;;;;;;5080629;28;20363;-56
2022/11/06 13:21:30;;;;;;;2.70;1.80;;;;;;;;;;5107875;27;20017;-56
2022/11/06 13:24:00;;;;;;;6.03;2.47;;;;;;;;;;5082275;28;20035;-56
2022/11/06 13:26:32;;;;;;;4.55;2.10;;;;;;;;;;5082903;28;20008;-56
2022/11/06 13:29:02;;;;;;;5.50;2.40;;;;;;;;;;5074029;28;20040;-54
2022/11/06 13:31:47;;;;;;;5.05;2.35;;;;;;;;;;5092190;28;20099;-56
2022/11/06 13:34:21;;;;;;;4.25;1.95;;;;;;;;;;5080590;28;20031;-56
2022/11/06 13:36:46;;;;;;;3.33;2.10;;;;;;;;;;5087083;28;20051;-57
2022/11/06 13:39:11;;;;;;;4.70;2.63;;;;;;;;;;5076050;28;20116;-56
2022/11/06 13:41:37;;;;;;;4.55;2.08;;;;;;;;;;5083556;28;20042;-56
2022/11/06 13:44:02;;;;;;;4.95;2.20;;;;;;;;;;5075214;28;20110;-55
2022/11/06 13:46:30;;;;;;;8.00;2.42;;;;;;;;;;5085504;28;20032;-56
2022/11/06 13:49:01;;;;;;;5.20;2.35;;;;;;;;;;5073832;28;20750;-56
2022/11/06 13:51:45;;;;;;;5.65;2.20;;;;;;;;;;5078164;28;20016;-56
2022/11/06 13:54:30;;;;;;;6.50;2.15;;;;;;;;;;5086251;28;20023;-55
2022/11/06 13:57:15;;;;;;;4.22;2.17;;;;;;;;;;5076200;28;20024;-56
2022/11/06 13:59:46;;;;;;;4.03;2.40;;;;;;;;;;5072643;28;20015;-56
2022/11/06 14:02:22;;;;;;;7.03;2.33;;;;;;;;;;5110418;27;20020;-56
2022/11/06 14:04:47;;;;;;;4.32;2.28;;;;;;;;;;5073564;28;20612;-56
2022/11/06 14:07:13;;;;;;;8.80;2.30;;;;;;;;;;5086197;28;20020;-56
2022/11/06 14:09:40;;;;;;;3.80;2.13;;;;;;;;;;5076266;28;20484;-55
2022/11/06 14:12:06;;;;;;;4.97;2.28;;;;;;;;;;5075947;28;20024;-56
2022/11/06 14:14:31;;;;;;;6.82;2.92;;;;;;;;;;5077010;28;20097;-56
2022/11/06 14:17:15;;;;;;;4.88;2.70;;;;;;;;;;5119299;27;20054;-56
2022/11/06 14:19:41;;;;;;;7.40;2.45;;;;;;;;;;5080964;28;20023;-55
2022/11/06 14:22:25;;;;;;;5.20;2.42;;;;;;;;;;5080156;28;20031;-55
2022/11/06 14:24:51;;;;;;;5.80;2.20;;;;;;;;;;5075668;28;20673;-54
2022/11/06 14:27:22;;;;;;;3.75;2.45;;;;;;;;;;5075375;28;20028;-57
2022/11/06 14:29:56;;;;;;;5.30;2.50;;;;;;;;;;5079066;28;20054;-56
2022/11/06 14:32:32;;;;;;;4.20;2.45;;;;;;;;;;5078810;28;20115;-54
2022/11/06 14:35:16;;;;;;;5.00;2.75;;;;;;;;;;5082242;28;20036;-56
2022/11/06 14:37:41;;;;;;;4.97;2.53;;;;;;;;;;5077472;28;20009;-55
2022/11/06 14:40:10;;;;;;;3.63;2.10;;;;;;;;;;5087456;28;20027;-54
2022/11/06 14:42:35;;;;;;;4.32;2.60;;;;;;;;;;5089167;28;20030;-55
2022/11/06 14:45:01;;;;;;;4.10;2.70;;;;;;;;;;5079927;28;20099;-56
2022/11/06 14:47:44;;;;;;;7.40;2.65;;;;;;;;;;5077784;28;20111;-56
2022/11/06 14:50:23;;;;;;;8.05;3.88;;;;;;;;;;5086762;28;20031;-55
2022/11/06 14:52:54;;;;;;;8.18;3.55;;;;;;;;;;5081805;28;20026;-56
2022/11/06 14:55:39;;;;;;;5.28;3.45;;;;;;;;;;5093346;28;20021;-56
2022/11/06 14:58:16;;;;;;;9.85;5.63;;;;;;;;;;5085380;28;20049;-56